CheckWX is a tool to help pilots better visualize weather data.  It is not intended as a substitute for an official pre-flight weather briefing.

03:15:54 UTC

KHUL METAR
Houlton International Airport
Houlton, Maine, USA
Current

23 mins ago

KHUL 270253Z AUTO VRB03KT 4SM BR OVC003 11/11 A2979 RMK AO2 SLP089 60000 T01110106 50000
Observed
May-27 @ 02:53 UTC
Wind
  • Variable at 3 KTS
Visibility
4 SM
Flight Rules
LIFR
Conditions
Mist
Cloud Levels
  • Overcast at 300' AGL
Temperature
11°C / 52°F
Dewpoint
11°C / 52°F
Humidity
100%
Altimeter
29.79" Hg
Pressure
1008.82 hPa
Previous

56 mins ago

KHUL 270220Z AUTO 18004KT 3SM BR OVC003 11/11 A2979 RMK AO2 T01110106
Observed
May-27 @ 02:20 UTC
Wind
  • 180° at 4 KTS
Visibility
3 SM
Flight Rules
LIFR
Conditions
Mist
Cloud Levels
  • Overcast at 300' AGL
Temperature
11°C / 52°F
Dewpoint
11°C / 52°F
Humidity
100%
Altimeter
29.79" Hg
Pressure
1008.82 hPa
Previous

1 hour ago

KHUL 270153Z AUTO 16005KT 2SM BR OVC003 12/11 A2979 RMK AO2 SLP091 T01170111
Observed
May-27 @ 01:53 UTC
Wind
  • 160° at 5 KTS
Visibility
2 SM
Flight Rules
LIFR
Conditions
Mist
Cloud Levels
  • Overcast at 300' AGL
Temperature
12°C / 54°F
Dewpoint
11°C / 52°F
Humidity
94%
Altimeter
29.79" Hg
Pressure
1008.82 hPa